sensor_id;sensor_type;location;lat;lon;timestamp;temperature;humidity
46123;DHT22;31856;-35.404;149.120;2023-06-10T00:00:52;7.70;72.50
46123;DHT22;31856;-35.404;149.120;2023-06-10T00:03:22;7.70;72.30
46123;DHT22;31856;-35.404;149.120;2023-06-10T00:05:52;7.80;72.70
46123;DHT22;31856;-35.404;149.120;2023-06-10T00:08:22;7.80;72.50
46123;DHT22;31856;-35.404;149.120;2023-06-10T00:10:51;7.90;72.00
46123;DHT22;31856;-35.404;149.120;2023-06-10T00:13:21;7.90;71.60
46123;DHT22;31856;-35.404;149.120;2023-06-10T00:15:50;8.00;71.50
46123;DHT22;31856;-35.404;149.120;2023-06-10T00:18:19;8.10;71.40
46123;DHT22;31856;-35.404;149.120;2023-06-10T00:20:50;8.20;71.40
46123;DHT22;31856;-35.404;149.120;2023-06-10T00:23:21;8.30;70.90
46123;DHT22;31856;-35.404;149.120;2023-06-10T00:25:51;8.30;70.70
46123;DHT22;31856;-35.404;149.120;2023-06-10T00:28:21;8.40;70.90
46123;DHT22;31856;-35.404;149.120;2023-06-10T00:30:50;8.50;70.70
46123;DHT22;31856;-35.404;149.120;2023-06-10T00:33:20;8.60;70.50
46123;DHT22;31856;-35.404;149.120;2023-06-10T00:35:49;8.60;70.00
46123;DHT22;31856;-35.404;149.120;2023-06-10T00:38:19;8.60;69.80
46123;DHT22;31856;-35.404;149.120;2023-06-10T00:40:49;8.70;69.80
46123;DHT22;31856;-35.404;149.120;2023-06-10T00:43:18;8.80;69.80
46123;DHT22;31856;-35.404;149.120;2023-06-10T00:45:48;8.80;69.60
46123;DHT22;31856;-35.404;149.120;2023-06-10T00:48:17;8.90;68.90
46123;DHT22;31856;-35.404;149.120;2023-06-10T00:50:47;8.90;68.60
46123;DHT22;31856;-35.404;149.120;2023-06-10T00:53:17;8.90;68.30
46123;DHT22;31856;-35.404;149.120;2023-06-10T00:55:47;9.10;68.40
46123;DHT22;31856;-35.404;149.120;2023-06-10T00:58:17;9.10;67.20
46123;DHT22;31856;-35.404;149.120;2023-06-10T01:00:46;9.20;66.60
46123;DHT22;31856;-35.404;149.120;2023-06-10T01:03:16;9.30;66.50
46123;DHT22;31856;-35.404;149.120;2023-06-10T01:05:48;9.50;66.10
46123;DHT22;31856;-35.404;149.120;2023-06-10T01:08:25;9.50;64.50
46123;DHT22;31856;-35.404;149.120;2023-06-10T01:10:59;9.60;64.20
46123;DHT22;31856;-35.404;149.120;2023-06-10T01:13:29;9.80;63.90
46123;DHT22;31856;-35.404;149.120;2023-06-10T01:16:00;9.90;62.50
46123;DHT22;31856;-35.404;149.120;2023-06-10T01:18:30;9.90;61.10
46123;DHT22;31856;-35.404;149.120;2023-06-10T01:20:59;10.00;60.30
46123;DHT22;31856;-35.404;149.120;2023-06-10T01:23:29;10.00;60.40
46123;DHT22;31856;-35.404;149.120;2023-06-10T01:26:00;10.10;60.00
46123;DHT22;31856;-35.404;149.120;2023-06-10T01:28:33;10.10;59.10
46123;DHT22;31856;-35.404;149.120;2023-06-10T01:31:08;10.20;59.50
46123;DHT22;31856;-35.404;149.120;2023-06-10T01:33:42;10.30;59.00
46123;DHT22;31856;-35.404;149.120;2023-06-10T01:36:13;10.40;59.80
46123;DHT22;31856;-35.404;149.120;2023-06-10T01:38:45;10.50;60.00
46123;DHT22;31856;-35.404;149.120;2023-06-10T01:41:16;10.60;60.00
46123;DHT22;31856;-35.404;149.120;2023-06-10T01:43:46;10.60;59.00
46123;DHT22;31856;-35.404;149.120;2023-06-10T02:02:18;10.90;58.90
46123;DHT22;31856;-35.404;149.120;2023-06-10T02:04:48;11.00;59.80
46123;DHT22;31856;-35.404;149.120;2023-06-10T02:07:17;11.20;59.20
46123;DHT22;31856;-35.404;149.120;2023-06-10T02:09:47;11.30;59.80
46123;DHT22;31856;-35.404;149.120;2023-06-10T02:12:16;11.30;59.70
46123;DHT22;31856;-35.404;149.120;2023-06-10T02:14:46;11.40;59.50
46123;DHT22;31856;-35.404;149.120;2023-06-10T02:17:15;11.40;58.50
46123;DHT22;31856;-35.404;149.120;2023-06-10T02:19:44;11.50;59.00
46123;DHT22;31856;-35.404;149.120;2023-06-10T02:22:21;11.50;59.20
46123;DHT22;31856;-35.404;149.120;2023-06-10T02:24:50;11.50;59.10
46123;DHT22;31856;-35.404;149.120;2023-06-10T02:27:20;11.60;58.90
46123;DHT22;31856;-35.404;149.120;2023-06-10T02:29:50;11.70;59.00
46123;DHT22;31856;-35.404;149.120;2023-06-10T02:32:19;11.70;58.90
46123;DHT22;31856;-35.404;149.120;2023-06-10T02:34:54;11.80;58.90
46123;DHT22;31856;-35.404;149.120;2023-06-10T02:37:24;11.80;59.40
46123;DHT22;31856;-35.404;149.120;2023-06-10T02:39:53;11.90;58.60
46123;DHT22;31856;-35.404;149.120;2023-06-10T02:42:23;11.90;59.20
46123;DHT22;31856;-35.404;149.120;2023-06-10T02:44:53;12.00;59.40
46123;DHT22;31856;-35.404;149.120;2023-06-10T02:47:23;12.20;58.80
46123;DHT22;31856;-35.404;149.120;2023-06-10T02:49:52;12.20;58.60
46123;DHT22;31856;-35.404;149.120;2023-06-10T02:52:22;12.30;58.50
46123;DHT22;31856;-35.404;149.120;2023-06-10T02:54:51;12.30;57.80
46123;DHT22;31856;-35.404;149.120;2023-06-10T02:57:21;12.40;57.70
46123;DHT22;31856;-35.404;149.120;2023-06-10T02:59:51;12.50;57.40
46123;DHT22;31856;-35.404;149.120;2023-06-10T03:02:22;12.50;58.00
46123;DHT22;31856;-35.404;149.120;2023-06-10T03:04:57;12.50;57.00
46123;DHT22;31856;-35.404;149.120;2023-06-10T03:07:28;12.50;57.50
46123;DHT22;31856;-35.404;149.120;2023-06-10T03:09:58;12.50;58.20
46123;DHT22;31856;-35.404;149.120;2023-06-10T03:12:28;12.50;57.40
46123;DHT22;31856;-35.404;149.120;2023-06-10T03:14:57;12.60;58.00
46123;DHT22;31856;-35.404;149.120;2023-06-10T03:17:27;12.70;58.10
46123;DHT22;31856;-35.404;149.120;2023-06-10T03:19:56;12.80;58.10
46123;DHT22;31856;-35.404;149.120;2023-06-10T03:22:27;12.80;58.30
46123;DHT22;31856;-35.404;149.120;2023-06-10T03:24:57;12.80;58.00
46123;DHT22;31856;-35.404;149.120;2023-06-10T03:27:28;12.90;57.90
46123;DHT22;31856;-35.404;149.120;2023-06-10T03:29:59;12.90;57.50
46123;DHT22;31856;-35.404;149.120;2023-06-10T03:32:28;13.00;57.30
46123;DHT22;31856;-35.404;149.120;2023-06-10T03:34:58;13.00;57.30
46123;DHT22;31856;-35.404;149.120;2023-06-10T03:37:27;13.10;57.00
46123;DHT22;31856;-35.404;149.120;2023-06-10T03:39:57;13.20;56.80
46123;DHT22;31856;-35.404;149.120;2023-06-10T03:42:27;13.10;56.50
46123;DHT22;31856;-35.404;149.120;2023-06-10T03:44:58;13.10;56.60
46123;DHT22;31856;-35.404;149.120;2023-06-10T03:47:33;13.20;57.00
46123;DHT22;31856;-35.404;149.120;2023-06-10T03:50:04;13.20;56.60
46123;DHT22;31856;-35.404;149.120;2023-06-10T03:52:34;13.30;56.90
46123;DHT22;31856;-35.404;149.120;2023-06-10T03:55:03;13.30;57.30
46123;DHT22;31856;-35.404;149.120;2023-06-10T03:57:34;13.30;56.90
46123;DHT22;31856;-35.404;149.120;2023-06-10T04:00:03;13.30;56.40
46123;DHT22;31856;-35.404;149.120;2023-06-10T04:02:40;13.30;56.70
46123;DHT22;31856;-35.404;149.120;2023-06-10T04:05:15;13.20;56.50
46123;DHT22;31856;-35.404;149.120;2023-06-10T04:07:44;13.30;57.10
46123;DHT22;31856;-35.404;149.120;2023-06-10T04:10:14;13.30;56.70
46123;DHT22;31856;-35.404;149.120;2023-06-10T04:12:44;13.30;57.00
46123;DHT22;31856;-35.404;149.120;2023-06-10T04:15:13;13.30;56.70
46123;DHT22;31856;-35.404;149.120;2023-06-10T04:17:43;13.30;57.00
46123;DHT22;31856;-35.404;149.120;2023-06-10T04:20:13;13.30;56.80
46123;DHT22;31856;-35.404;149.120;2023-06-10T04:22:43;13.30;57.10
46123;DHT22;31856;-35.404;149.120;2023-06-10T04:25:13;13.30;57.30
46123;DHT22;31856;-35.404;149.120;2023-06-10T04:27:42;13.30;57.50
46123;DHT22;31856;-35.404;149.120;2023-06-10T04:30:12;13.40;57.00
46123;DHT22;31856;-35.404;149.120;2023-06-10T04:32:42;13.40;57.60
46123;DHT22;31856;-35.404;149.120;2023-06-10T04:35:12;13.50;57.00
46123;DHT22;31856;-35.404;149.120;2023-06-10T04:37:45;13.50;57.00
46123;DHT22;31856;-35.404;149.120;2023-06-10T04:40:14;13.50;56.90
46123;DHT22;31856;-35.404;149.120;2023-06-10T04:42:44;13.50;56.80
46123;DHT22;31856;-35.404;149.120;2023-06-10T04:45:14;13.50;56.90
46123;DHT22;31856;-35.404;149.120;2023-06-10T04:47:44;13.50;57.10
46123;DHT22;31856;-35.404;149.120;2023-06-10T04:50:13;13.50;57.80
46123;DHT22;31856;-35.404;149.120;2023-06-10T04:52:42;13.50;57.70
46123;DHT22;31856;-35.404;149.120;2023-06-10T04:55:13;13.40;57.20
46123;DHT22;31856;-35.404;149.120;2023-06-10T04:57:42;13.30;56.90
46123;DHT22;31856;-35.404;149.120;2023-06-10T05:00:12;13.30;57.10
46123;DHT22;31856;-35.404;149.120;2023-06-10T05:02:42;13.30;57.30
46123;DHT22;31856;-35.404;149.120;2023-06-10T05:05:12;13.30;57.50
46123;DHT22;31856;-35.404;149.120;2023-06-10T05:07:41;13.30;57.80
46123;DHT22;31856;-35.404;149.120;2023-06-10T05:10:11;13.30;57.60
46123;DHT22;31856;-35.404;149.120;2023-06-10T05:12:43;13.30;57.50
46123;DHT22;31856;-35.404;149.120;2023-06-10T05:15:13;13.30;57.80
46123;DHT22;31856;-35.404;149.120;2023-06-10T05:17:42;13.30;57.80
46123;DHT22;31856;-35.404;149.120;2023-06-10T05:20:12;13.30;57.90
46123;DHT22;31856;-35.404;149.120;2023-06-10T05:22:42;13.30;58.10
46123;DHT22;31856;-35.404;149.120;2023-06-10T05:25:12;13.30;58.20
46123;DHT22;31856;-35.404;149.120;2023-06-10T05:27:41;13.20;58.50
46123;DHT22;31856;-35.404;149.120;2023-06-10T05:30:12;13.10;58.90
46123;DHT22;31856;-35.404;149.120;2023-06-10T23:27:21;4.50;81.60
46123;DHT22;31856;-35.404;149.120;2023-06-10T23:29:51;4.70;81.20
46123;DHT22;31856;-35.404;149.120;2023-06-10T23:32:26;4.80;80.80
46123;DHT22;31856;-35.404;149.120;2023-06-10T23:34:56;4.90;80.40
46123;DHT22;31856;-35.404;149.120;2023-06-10T23:37:26;5.00;80.20
46123;DHT22;31856;-35.404;149.120;2023-06-10T23:39:57;5.10;79.90
46123;DHT22;31856;-35.404;149.120;2023-06-10T23:42:26;5.20;79.40
46123;DHT22;31856;-35.404;149.120;2023-06-10T23:44:56;5.30;79.00
46123;DHT22;31856;-35.404;149.120;2023-06-10T23:47:25;5.40;78.80
46123;DHT22;31856;-35.404;149.120;2023-06-10T23:49:55;5.60;78.30
46123;DHT22;31856;-35.404;149.120;2023-06-10T23:52:24;5.60;77.10
46123;DHT22;31856;-35.404;149.120;2023-06-10T23:54:54;5.80;76.70
46123;DHT22;31856;-35.404;149.120;2023-06-10T23:57:25;5.90;76.80
46123;DHT22;31856;-35.404;149.120;2023-06-10T23:59:55;6.00;76.40
